sensor_id;sensor_type;location;lat;lon;timestamp;temperature;humidity
31765;DHT22;18338;53.240;8.798;2024-03-23T00:56:26;6.30;99.90
31765;DHT22;18338;53.240;8.798;2024-03-23T00:59:20;6.30;99.90
31765;DHT22;18338;53.240;8.798;2024-03-23T01:01:47;6.30;99.90
31765;DHT22;18338;53.240;8.798;2024-03-23T01:04:13;6.30;99.90
31765;DHT22;18338;53.240;8.798;2024-03-23T01:06:39;6.20;99.90
31765;DHT22;18338;53.240;8.798;2024-03-23T01:09:04;6.20;99.90
31765;DHT22;18338;53.240;8.798;2024-03-23T01:11:30;6.20;99.90
31765;DHT22;18338;53.240;8.798;2024-03-23T01:13:56;6.20;99.90
31765;DHT22;18338;53.240;8.798;2024-03-23T01:16:22;6.10;99.90
31765;DHT22;18338;53.240;8.798;2024-03-23T01:18:47;6.10;99.90
31765;DHT22;18338;53.240;8.798;2024-03-23T01:21:13;6.10;99.90
31765;DHT22;18338;53.240;8.798;2024-03-23T01:23:39;6.10;99.90
31765;DHT22;18338;53.240;8.798;2024-03-23T01:28:33;6.00;99.90
31765;DHT22;18338;53.240;8.798;2024-03-23T01:30:59;6.00;99.90
31765;DHT22;18338;53.240;8.798;2024-03-23T01:33:25;6.00;99.90
31765;DHT22;18338;53.240;8.798;2024-03-23T01:35:50;5.90;99.90
31765;DHT22;18338;53.240;8.798;2024-03-23T01:38:16;5.90;99.90
31765;DHT22;18338;53.240;8.798;2024-03-23T01:40:42;5.90;99.90
31765;DHT22;18338;53.240;8.798;2024-03-23T01:43:08;5.90;99.90
31765;DHT22;18338;53.240;8.798;2024-03-23T01:45:34;5.90;99.90
31765;DHT22;18338;53.240;8.798;2024-03-23T01:48:01;6.00;99.90
31765;DHT22;18338;53.240;8.798;2024-03-23T01:50:27;5.90;99.90
31765;DHT22;18338;53.240;8.798;2024-03-23T01:52:54;6.00;99.90
31765;DHT22;18338;53.240;8.798;2024-03-23T01:55:20;5.90;99.90
31765;DHT22;18338;53.240;8.798;2024-03-23T01:57:46;5.90;99.90
31765;DHT22;18338;53.240;8.798;2024-03-23T02:00:13;5.90;99.90
31765;DHT22;18338;53.240;8.798;2024-03-23T02:02:43;5.90;99.90
31765;DHT22;18338;53.240;8.798;2024-03-23T02:05:11;5.90;99.90
31765;DHT22;18338;53.240;8.798;2024-03-23T02:07:39;6.00;99.90
31765;DHT22;18338;53.240;8.798;2024-03-23T02:10:06;5.90;99.90
31765;DHT22;18338;53.240;8.798;2024-03-23T02:12:33;5.90;99.90
31765;DHT22;18338;53.240;8.798;2024-03-23T02:14:59;5.90;99.90
31765;DHT22;18338;53.240;8.798;2024-03-23T02:17:25;6.00;99.90
31765;DHT22;18338;53.240;8.798;2024-03-23T02:19:51;6.00;99.90
31765;DHT22;18338;53.240;8.798;2024-03-23T02:22:17;5.90;99.90
31765;DHT22;18338;53.240;8.798;2024-03-23T02:24:42;5.90;99.90
31765;DHT22;18338;53.240;8.798;2024-03-23T02:27:08;5.90;99.90
31765;DHT22;18338;53.240;8.798;2024-03-23T02:29:34;5.90;99.90
31765;DHT22;18338;53.240;8.798;2024-03-23T02:32:00;5.90;99.90
31765;DHT22;18338;53.240;8.798;2024-03-23T02:34:26;5.90;99.90
31765;DHT22;18338;53.240;8.798;2024-03-23T02:36:52;5.80;99.90
31765;DHT22;18338;53.240;8.798;2024-03-23T02:39:18;5.80;99.90
31765;DHT22;18338;53.240;8.798;2024-03-23T02:41:43;5.80;99.90
31765;DHT22;18338;53.240;8.798;2024-03-23T02:44:09;5.80;99.90
31765;DHT22;18338;53.240;8.798;2024-03-23T02:46:38;5.80;99.90
31765;DHT22;18338;53.240;8.798;2024-03-23T02:49:03;5.80;99.90
31765;DHT22;18338;53.240;8.798;2024-03-23T02:51:30;5.80;99.90
31765;DHT22;18338;53.240;8.798;2024-03-23T02:53:56;5.80;99.90
31765;DHT22;18338;53.240;8.798;2024-03-23T02:56:22;5.80;99.90
31765;DHT22;18338;53.240;8.798;2024-03-23T02:58:48;5.70;99.90
31765;DHT22;18338;53.240;8.798;2024-03-23T03:01:13;5.60;99.90
31765;DHT22;18338;53.240;8.798;2024-03-23T03:03:39;5.60;99.90
31765;DHT22;18338;53.240;8.798;2024-03-23T03:06:05;5.60;99.90
31765;DHT22;18338;53.240;8.798;2024-03-23T03:08:31;5.60;99.90
31765;DHT22;18338;53.240;8.798;2024-03-23T03:10:57;5.60;99.90
31765;DHT22;18338;53.240;8.798;2024-03-23T03:13:22;5.60;99.90
31765;DHT22;18338;53.240;8.798;2024-03-23T03:15:48;5.60;99.90
31765;DHT22;18338;53.240;8.798;2024-03-23T03:18:14;5.60;99.90
31765;DHT22;18338;53.240;8.798;2024-03-23T03:20:40;5.60;99.90
31765;DHT22;18338;53.240;8.798;2024-03-23T03:23:07;5.60;99.90
31765;DHT22;18338;53.240;8.798;2024-03-23T03:25:33;5.60;99.90
31765;DHT22;18338;53.240;8.798;2024-03-23T03:27:59;5.60;99.90
31765;DHT22;18338;53.240;8.798;2024-03-23T03:30:24;5.60;99.90
31765;DHT22;18338;53.240;8.798;2024-03-23T03:32:53;5.60;99.90
31765;DHT22;18338;53.240;8.798;2024-03-23T03:35:19;5.60;99.90
31765;DHT22;18338;53.240;8.798;2024-03-23T03:37:44;5.60;99.90
31765;DHT22;18338;53.240;8.798;2024-03-23T03:40:11;5.60;99.90
31765;DHT22;18338;53.240;8.798;2024-03-23T03:42:37;5.50;99.90
31765;DHT22;18338;53.240;8.798;2024-03-23T03:45:03;5.50;99.90
31765;DHT22;18338;53.240;8.798;2024-03-23T03:47:30;5.50;99.90
31765;DHT22;18338;53.240;8.798;2024-03-23T03:49:56;5.50;99.90
31765;DHT22;18338;53.240;8.798;2024-03-23T03:52:22;5.50;99.90
31765;DHT22;18338;53.240;8.798;2024-03-23T03:54:47;5.50;99.90
31765;DHT22;18338;53.240;8.798;2024-03-23T03:57:13;5.50;99.90
31765;DHT22;18338;53.240;8.798;2024-03-23T03:59:39;5.50;99.90
31765;DHT22;18338;53.240;8.798;2024-03-23T04:02:04;5.50;99.90
31765;DHT22;18338;53.240;8.798;2024-03-23T04:04:30;5.50;99.90
31765;DHT22;18338;53.240;8.798;2024-03-23T04:07:00;5.50;99.90
31765;DHT22;18338;53.240;8.798;2024-03-23T04:09:26;5.50;99.90
31765;DHT22;18338;53.240;8.798;2024-03-23T04:11:52;5.60;99.90
31765;DHT22;18338;53.240;8.798;2024-03-23T04:14:17;5.60;99.90
31765;DHT22;18338;53.240;8.798;2024-03-23T04:16:43;5.60;99.90
31765;DHT22;18338;53.240;8.798;2024-03-23T04:19:09;5.60;99.90
31765;DHT22;18338;53.240;8.798;2024-03-23T04:21:36;5.60;99.90
31765;DHT22;18338;53.240;8.798;2024-03-23T04:24:01;5.60;99.90
31765;DHT22;18338;53.240;8.798;2024-03-23T04:26:27;5.60;99.90
31765;DHT22;18338;53.240;8.798;2024-03-23T04:28:53;5.60;99.90
31765;DHT22;18338;53.240;8.798;2024-03-23T04:31:19;5.60;99.90
31765;DHT22;18338;53.240;8.798;2024-03-23T04:33:45;5.60;99.90
31765;DHT22;18338;53.240;8.798;2024-03-23T04:36:10;5.60;99.90
31765;DHT22;18338;53.240;8.798;2024-03-23T04:38:36;5.60;99.90
31765;DHT22;18338;53.240;8.798;2024-03-23T04:41:02;5.60;99.90
31765;DHT22;18338;53.240;8.798;2024-03-23T04:43:28;5.60;99.90
31765;DHT22;18338;53.240;8.798;2024-03-23T04:45:54;5.60;99.90
31765;DHT22;18338;53.240;8.798;2024-03-23T04:48:23;5.60;99.90
31765;DHT22;18338;53.240;8.798;2024-03-23T04:50:49;5.70;99.90
31765;DHT22;18338;53.240;8.798;2024-03-23T04:53:19;5.60;99.90
31765;DHT22;18338;53.240;8.798;2024-03-23T04:55:45;5.70;99.90
31765;DHT22;18338;53.240;8.798;2024-03-23T04:58:11;5.60;99.90
31765;DHT22;18338;53.240;8.798;2024-03-23T05:00:37;5.60;99.90
31765;DHT22;18338;53.240;8.798;2024-03-23T05:03:03;5.60;99.90
31765;DHT22;18338;53.240;8.798;2024-03-23T05:05:29;5.60;99.90
31765;DHT22;18338;53.240;8.798;2024-03-23T05:07:55;5.60;99.90
31765;DHT22;18338;53.240;8.798;2024-03-23T05:10:21;5.50;99.90
31765;DHT22;18338;53.240;8.798;2024-03-23T05:12:47;5.50;99.90
31765;DHT22;18338;53.240;8.798;2024-03-23T05:15:12;5.50;99.90
31765;DHT22;18338;53.240;8.798;2024-03-23T05:17:38;5.40;99.90
31765;DHT22;18338;53.240;8.798;2024-03-23T05:20:05;5.40;99.90
31765;DHT22;18338;53.240;8.798;2024-03-23T05:22:36;5.30;99.90
31765;DHT22;18338;53.240;8.798;2024-03-23T05:25:02;5.30;99.90
31765;DHT22;18338;53.240;8.798;2024-03-23T05:27:33;5.30;99.90
31765;DHT22;18338;53.240;8.798;2024-03-23T05:29:59;5.20;99.90
31765;DHT22;18338;53.240;8.798;2024-03-23T05:32:25;5.20;99.90
31765;DHT22;18338;53.240;8.798;2024-03-23T05:34:51;5.20;99.90
31765;DHT22;18338;53.240;8.798;2024-03-23T05:37:22;5.20;99.90
31765;DHT22;18338;53.240;8.798;2024-03-23T05:39:47;5.20;99.90
31765;DHT22;18338;53.240;8.798;2024-03-23T05:42:16;5.20;99.90
31765;DHT22;18338;53.240;8.798;2024-03-23T05:44:46;5.20;99.90
31765;DHT22;18338;53.240;8.798;2024-03-23T05:47:13;5.10;99.90
31765;DHT22;18338;53.240;8.798;2024-03-23T05:49:40;5.00;99.90
31765;DHT22;18338;53.240;8.798;2024-03-23T05:52:08;5.00;99.90
31765;DHT22;18338;53.240;8.798;2024-03-23T05:54:35;5.00;99.90
31765;DHT22;18338;53.240;8.798;2024-03-23T05:57:01;5.00;99.90
31765;DHT22;18338;53.240;8.798;2024-03-23T05:59:27;5.10;99.90
31765;DHT22;18338;53.240;8.798;2024-03-23T06:01:53;5.00;99.90
31765;DHT22;18338;53.240;8.798;2024-03-23T06:04:19;5.00;99.90
31765;DHT22;18338;53.240;8.798;2024-03-23T06:06:45;5.10;99.90
31765;DHT22;18338;53.240;8.798;2024-03-23T06:09:11;5.00;99.90
31765;DHT22;18338;53.240;8.798;2024-03-23T06:11:37;5.00;99.90
31765;DHT22;18338;53.240;8.798;2024-03-23T06:14:02;5.00;99.90
31765;DHT22;18338;53.240;8.798;2024-03-23T06:16:28;5.00;99.90
31765;DHT22;18338;53.240;8.798;2024-03-23T06:18:54;5.00;99.90
31765;DHT22;18338;53.240;8.798;2024-03-23T06:21:20;5.00;99.90
31765;DHT22;18338;53.240;8.798;2024-03-23T06:23:46;5.10;99.90
31765;DHT22;18338;53.240;8.798;2024-03-23T06:26:19;5.20;99.90
31765;DHT22;18338;53.240;8.798;2024-03-23T06:28:45;5.20;99.90
31765;DHT22;18338;53.240;8.798;2024-03-23T06:31:12;5.20;99.90
31765;DHT22;18338;53.240;8.798;2024-03-23T06:33:38;5.30;99.90
31765;DHT22;18338;53.240;8.798;2024-03-23T06:36:09;5.40;99.90
31765;DHT22;18338;53.240;8.798;2024-03-23T06:38:35;5.50;99.90
31765;DHT22;18338;53.240;8.798;2024-03-23T06:41:08;5.50;99.90
31765;DHT22;18338;53.240;8.798;2024-03-23T06:43:33;5.60;99.90
31765;DHT22;18338;53.240;8.798;2024-03-23T06:45:59;5.70;99.90
31765;DHT22;18338;53.240;8.798;2024-03-23T06:48:25;5.70;99.90
31765;DHT22;18338;53.240;8.798;2024-03-23T06:50:55;5.70;99.90
31765;DHT22;18338;53.240;8.798;2024-03-23T06:53:21;5.80;99.90
31765;DHT22;18338;53.240;8.798;2024-03-23T06:55:50;5.90;99.90
31765;DHT22;18338;53.240;8.798;2024-03-23T06:58:17;5.90;99.90
31765;DHT22;18338;53.240;8.798;2024-03-23T07:00:43;6.00;99.90
31765;DHT22;18338;53.240;8.798;2024-03-23T07:03:08;6.10;99.90
31765;DHT22;18338;53.240;8.798;2024-03-23T07:05:34;6.20;99.90
31765;DHT22;18338;53.240;8.798;2024-03-23T07:08:00;6.20;99.90
31765;DHT22;18338;53.240;8.798;2024-03-23T07:10:25;6.30;99.90
31765;DHT22;18338;53.240;8.798;2024-03-23T07:12:51;6.30;99.90
31765;DHT22;18338;53.240;8.798;2024-03-23T07:15:17;6.40;99.90
31765;DHT22;18338;53.240;8.798;2024-03-23T07:17:47;6.50;99.90
31765;DHT22;18338;53.240;8.798;2024-03-23T07:20:13;6.50;99.90
31765;DHT22;18338;53.240;8.798;2024-03-23T07:22:39;6.60;99.90
31765;DHT22;18338;53.240;8.798;2024-03-23T07:25:05;6.60;99.90
31765;DHT22;18338;53.240;8.798;2024-03-23T07:27:32;6.70;99.90
31765;DHT22;18338;53.240;8.798;2024-03-23T07:29:57;6.80;99.90
31765;DHT22;18338;53.240;8.798;2024-03-23T07:32:23;6.80;99.90
31765;DHT22;18338;53.240;8.798;2024-03-23T07:34:49;6.90;99.90
31765;DHT22;18338;53.240;8.798;2024-03-23T07:37:15;7.00;99.90
31765;DHT22;18338;53.240;8.798;2024-03-23T07:39:41;7.10;99.90
31765;DHT22;18338;53.240;8.798;2024-03-23T07:42:07;7.20;99.90
31765;DHT22;18338;53.240;8.798;2024-03-23T07:44:33;7.20;99.90
31765;DHT22;18338;53.240;8.798;2024-03-23T07:47:00;7.30;99.90
31765;DHT22;18338;53.240;8.798;2024-03-23T07:49:26;7.30;99.90
31765;DHT22;18338;53.240;8.798;2024-03-23T07:51:52;7.40;99.90
31765;DHT22;18338;53.240;8.798;2024-03-23T07:54:18;7.50;99.90
31765;DHT22;18338;53.240;8.798;2024-03-23T07:56:44;7.60;99.90
31765;DHT22;18338;53.240;8.798;2024-03-23T07:59:10;7.70;99.90
31765;DHT22;18338;53.240;8.798;2024-03-23T08:01:36;7.80;99.90
31765;DHT22;18338;53.240;8.798;2024-03-23T08:04:02;7.80;99.90
31765;DHT22;18338;53.240;8.798;2024-03-23T08:06:28;7.90;99.90
31765;DHT22;18338;53.240;8.798;2024-03-23T08:08:57;7.90;99.90
31765;DHT22;18338;53.240;8.798;2024-03-23T08:11:27;8.00;99.90
31765;DHT22;18338;53.240;8.798;2024-03-23T08:13:53;8.10;99.90
31765;DHT22;18338;53.240;8.798;2024-03-23T08:16:19;8.20;99.90
31765;DHT22;18338;53.240;8.798;2024-03-23T08:18:45;8.40;99.90
31765;DHT22;18338;53.240;8.798;2024-03-23T08:21:11;8.30;99.90
31765;DHT22;18338;53.240;8.798;2024-03-23T08:23:37;8.30;99.90
31765;DHT22;18338;53.240;8.798;2024-03-23T08:26:07;8.40;99.90
31765;DHT22;18338;53.240;8.798;2024-03-23T08:28:33;8.60;99.90
31765;DHT22;18338;53.240;8.798;2024-03-23T08:31:12;8.60;99.90
31765;DHT22;18338;53.240;8.798;2024-03-23T08:33:38;8.70;99.90
31765;DHT22;18338;53.240;8.798;2024-03-23T08:36:06;8.90;99.90
31765;DHT22;18338;53.240;8.798;2024-03-23T08:38:33;9.30;99.90
31765;DHT22;18338;53.240;8.798;2024-03-23T08:40:59;9.30;99.90
31765;DHT22;18338;53.240;8.798;2024-03-23T08:43:26;9.70;99.90
31765;DHT22;18338;53.240;8.798;2024-03-23T08:45:52;10.40;99.90
31765;DHT22;18338;53.240;8.798;2024-03-23T08:48:19;10.80;99.90
31765;DHT22;18338;53.240;8.798;2024-03-23T08:51:02;10.60;99.90
31765;DHT22;18338;53.240;8.798;2024-03-23T08:53:29;11.70;99.90
31765;DHT22;18338;53.240;8.798;2024-03-23T08:55:56;13.20;99.90
31765;DHT22;18338;53.240;8.798;2024-03-23T08:58:23;14.10;99.90
31765;DHT22;18338;53.240;8.798;2024-03-23T09:00:53;14.40;99.90
31765;DHT22;18338;53.240;8.798;2024-03-23T09:03:25;14.40;99.90
31765;DHT22;18338;53.240;8.798;2024-03-23T09:05:51;13.80;99.90
31765;DHT22;18338;53.240;8.798;2024-03-23T09:08:21;12.30;99.90
31765;DHT22;18338;53.240;8.798;2024-03-23T09:10:47;11.40;99.90
31765;DHT22;18338;53.240;8.798;2024-03-23T09:13:13;10.10;99.90
31765;DHT22;18338;53.240;8.798;2024-03-23T09:16:06;10.30;99.90
31765;DHT22;18338;53.240;8.798;2024-03-23T09:18:33;10.90;99.90
31765;DHT22;18338;53.240;8.798;2024-03-23T09:21:01;11.50;99.90
31765;DHT22;18338;53.240;8.798;2024-03-23T09:23:27;12.40;99.90
31765;DHT22;18338;53.240;8.798;2024-03-23T09:25:53;10.80;99.90
31765;DHT22;18338;53.240;8.798;2024-03-23T09:28:19;10.10;99.90
31765;DHT22;18338;53.240;8.798;2024-03-23T09:30:44;12.20;99.90
31765;DHT22;18338;53.240;8.798;2024-03-23T09:33:11;14.80;99.90
31765;DHT22;18338;53.240;8.798;2024-03-23T09:35:42;15.00;99.90
31765;DHT22;18338;53.240;8.798;2024-03-23T09:38:08;14.60;99.90
31765;DHT22;18338;53.240;8.798;2024-03-23T09:40:39;14.20;99.90
31765;DHT22;18338;53.240;8.798;2024-03-23T09:43:06;13.50;99.90
31765;DHT22;18338;53.240;8.798;2024-03-23T09:45:36;13.20;99.90
31765;DHT22;18338;53.240;8.798;2024-03-23T09:48:04;12.30;99.90
31765;DHT22;18338;53.240;8.798;2024-03-23T09:50:30;12.40;99.90
31765;DHT22;18338;53.240;8.798;2024-03-23T09:52:55;12.50;99.90
31765;DHT22;18338;53.240;8.798;2024-03-23T09:55:21;11.90;99.90
31765;DHT22;18338;53.240;8.798;2024-03-23T09:57:47;11.60;99.90
31765;DHT22;18338;53.240;8.798;2024-03-23T10:00:13;12.40;99.90
31765;DHT22;18338;53.240;8.798;2024-03-23T10:02:39;12.40;99.90
31765;DHT22;18338;53.240;8.798;2024-03-23T10:05:07;11.80;99.90
31765;DHT22;18338;53.240;8.798;2024-03-23T10:07:45;11.40;99.90
31765;DHT22;18338;53.240;8.798;2024-03-23T10:10:11;11.40;99.90
31765;DHT22;18338;53.240;8.798;2024-03-23T10:12:44;13.20;99.90
31765;DHT22;18338;53.240;8.798;2024-03-23T10:15:19;13.60;99.90
31765;DHT22;18338;53.240;8.798;2024-03-23T10:17:45;14.70;99.90
31765;DHT22;18338;53.240;8.798;2024-03-23T10:20:11;15.90;99.90
31765;DHT22;18338;53.240;8.798;2024-03-23T10:22:38;17.70;99.90
31765;DHT22;18338;53.240;8.798;2024-03-23T10:25:11;18.20;99.90
31765;DHT22;18338;53.240;8.798;2024-03-23T10:27:36;18.20;99.90
31765;DHT22;18338;53.240;8.798;2024-03-23T10:30:10;17.90;99.90
31765;DHT22;18338;53.240;8.798;2024-03-23T10:32:37;18.20;99.90
31765;DHT22;18338;53.240;8.798;2024-03-23T10:35:22;16.00;99.90
31765;DHT22;18338;53.240;8.798;2024-03-23T10:37:48;15.00;99.90
31765;DHT22;18338;53.240;8.798;2024-03-23T10:40:17;16.80;99.90
31765;DHT22;18338;53.240;8.798;2024-03-23T10:42:44;16.10;99.90
31765;DHT22;18338;53.240;8.798;2024-03-23T10:45:10;13.90;99.90
31765;DHT22;18338;53.240;8.798;2024-03-23T10:47:37;11.60;99.90
31765;DHT22;18338;53.240;8.798;2024-03-23T10:50:06;10.80;99.90
31765;DHT22;18338;53.240;8.798;2024-03-23T10:52:33;11.50;99.90
31765;DHT22;18338;53.240;8.798;2024-03-23T10:55:01;11.00;99.90
31765;DHT22;18338;53.240;8.798;2024-03-23T10:57:34;10.40;99.90
31765;DHT22;18338;53.240;8.798;2024-03-23T11:00:04;10.00;99.90
31765;DHT22;18338;53.240;8.798;2024-03-23T11:02:30;9.60;99.90
31765;DHT22;18338;53.240;8.798;2024-03-23T11:04:55;9.80;99.90
31765;DHT22;18338;53.240;8.798;2024-03-23T11:09:50;13.40;99.90
31765;DHT22;18338;53.240;8.798;2024-03-23T11:15:03;10.80;99.90
31765;DHT22;18338;53.240;8.798;2024-03-23T11:17:29;10.40;99.90
31765;DHT22;18338;53.240;8.798;2024-03-23T11:22:38;10.60;99.90
31765;DHT22;18338;53.240;8.798;2024-03-23T11:25:17;10.10;99.90
31765;DHT22;18338;53.240;8.798;2024-03-23T11:27:44;9.30;99.90
31765;DHT22;18338;53.240;8.798;2024-03-23T11:30:12;9.00;99.90
31765;DHT22;18338;53.240;8.798;2024-03-23T11:32:38;9.20;99.90
31765;DHT22;18338;53.240;8.798;2024-03-23T11:35:04;9.20;99.90
31765;DHT22;18338;53.240;8.798;2024-03-23T11:37:31;9.10;99.90
31765;DHT22;18338;53.240;8.798;2024-03-23T11:39:56;9.00;99.90
31765;DHT22;18338;53.240;8.798;2024-03-23T11:42:22;11.00;99.90
31765;DHT22;18338;53.240;8.798;2024-03-23T11:44:48;12.30;99.90
31765;DHT22;18338;53.240;8.798;2024-03-23T11:47:14;12.30;99.90
31765;DHT22;18338;53.240;8.798;2024-03-23T11:49:39;13.90;99.90
31765;DHT22;18338;53.240;8.798;2024-03-23T11:52:08;14.50;99.90
31765;DHT22;18338;53.240;8.798;2024-03-23T11:54:33;13.30;99.90
31765;DHT22;18338;53.240;8.798;2024-03-23T11:57:08;12.00;99.90
31765;DHT22;18338;53.240;8.798;2024-03-23T11:59:39;11.20;99.90
31765;DHT22;18338;53.240;8.798;2024-03-23T12:02:10;11.50;99.90
31765;DHT22;18338;53.240;8.798;2024-03-23T12:04:40;12.40;99.90
31765;DHT22;18338;53.240;8.798;2024-03-23T12:07:13;12.80;99.90
31765;DHT22;18338;53.240;8.798;2024-03-23T12:09:40;11.80;99.90
31765;DHT22;18338;53.240;8.798;2024-03-23T12:12:18;9.80;99.90
31765;DHT22;18338;53.240;8.798;2024-03-23T12:14:45;8.40;99.90
31765;DHT22;18338;53.240;8.798;2024-03-23T12:17:26;7.60;99.90
31765;DHT22;18338;53.240;8.798;2024-03-23T12:19:52;6.60;99.90
31765;DHT22;18338;53.240;8.798;2024-03-23T12:22:22;5.50;99.90
31765;DHT22;18338;53.240;8.798;2024-03-23T12:24:48;4.80;99.90
31765;DHT22;18338;53.240;8.798;2024-03-23T12:27:14;4.40;99.90
31765;DHT22;18338;53.240;8.798;2024-03-23T12:29:42;4.20;99.90
31765;DHT22;18338;53.240;8.798;2024-03-23T12:32:13;4.20;99.90
31765;DHT22;18338;53.240;8.798;2024-03-23T12:34:39;4.20;99.90
31765;DHT22;18338;53.240;8.798;2024-03-23T12:37:05;4.30;99.90
31765;DHT22;18338;53.240;8.798;2024-03-23T12:39:35;5.10;99.90
31765;DHT22;18338;53.240;8.798;2024-03-23T12:42:01;5.50;99.90
31765;DHT22;18338;53.240;8.798;2024-03-23T12:44:28;5.70;99.90
31765;DHT22;18338;53.240;8.798;2024-03-23T12:46:54;5.80;99.90
31765;DHT22;18338;53.240;8.798;2024-03-23T12:49:20;5.90;99.90
31765;DHT22;18338;53.240;8.798;2024-03-23T12:51:53;6.10;99.90
31765;DHT22;18338;53.240;8.798;2024-03-23T12:54:20;6.40;99.90
31765;DHT22;18338;53.240;8.798;2024-03-23T12:56:46;7.60;99.90
31765;DHT22;18338;53.240;8.798;2024-03-23T12:59:11;9.10;99.90
31765;DHT22;18338;53.240;8.798;2024-03-23T13:01:39;10.50;99.90
31765;DHT22;18338;53.240;8.798;2024-03-23T13:04:05;12.00;99.90
31765;DHT22;18338;53.240;8.798;2024-03-23T13:06:31;13.20;99.90
31765;DHT22;18338;53.240;8.798;2024-03-23T13:09:01;13.80;99.90
31765;DHT22;18338;53.240;8.798;2024-03-23T13:11:27;14.40;99.90
31765;DHT22;18338;53.240;8.798;2024-03-23T13:16:29;13.80;99.90
31765;DHT22;18338;53.240;8.798;2024-03-23T13:18:55;12.20;99.90
31765;DHT22;18338;53.240;8.798;2024-03-23T13:21:21;10.50;99.90
31765;DHT22;18338;53.240;8.798;2024-03-23T13:23:47;9.40;99.90
31765;DHT22;18338;53.240;8.798;2024-03-23T13:26:14;8.40;99.90
31765;DHT22;18338;53.240;8.798;2024-03-23T13:28:39;7.70;99.90
31765;DHT22;18338;53.240;8.798;2024-03-23T13:31:05;8.40;99.90
31765;DHT22;18338;53.240;8.798;2024-03-23T13:33:31;9.00;99.90
31765;DHT22;18338;53.240;8.798;2024-03-23T13:36:00;8.30;99.90
31765;DHT22;18338;53.240;8.798;2024-03-23T13:38:26;7.60;99.90
31765;DHT22;18338;53.240;8.798;2024-03-23T13:40:56;7.10;99.90
31765;DHT22;18338;53.240;8.798;2024-03-23T13:43:23;7.00;99.90
31765;DHT22;18338;53.240;8.798;2024-03-23T13:45:52;7.70;99.90
31765;DHT22;18338;53.240;8.798;2024-03-23T13:48:20;9.50;99.90
31765;DHT22;18338;53.240;8.798;2024-03-23T13:50:46;11.30;99.90
31765;DHT22;18338;53.240;8.798;2024-03-23T13:53:16;12.30;99.90
31765;DHT22;18338;53.240;8.798;2024-03-23T13:56:09;13.40;99.90
31765;DHT22;18338;53.240;8.798;2024-03-23T13:58:34;14.40;99.90
31765;DHT22;18338;53.240;8.798;2024-03-23T14:01:00;13.30;99.90
31765;DHT22;18338;53.240;8.798;2024-03-23T14:03:26;14.20;99.90
31765;DHT22;18338;53.240;8.798;2024-03-23T14:05:58;14.10;99.90
31765;DHT22;18338;53.240;8.798;2024-03-23T14:08:23;14.30;99.90
31765;DHT22;18338;53.240;8.798;2024-03-23T14:10:50;14.10;99.90
31765;DHT22;18338;53.240;8.798;2024-03-23T14:13:17;14.30;99.90
31765;DHT22;18338;53.240;8.798;2024-03-23T14:15:43;14.20;99.90
31765;DHT22;18338;53.240;8.798;2024-03-23T14:18:09;13.40;99.90
31765;DHT22;18338;53.240;8.798;2024-03-23T14:20:35;13.80;99.90
31765;DHT22;18338;53.240;8.798;2024-03-23T14:23:01;14.00;99.90
31765;DHT22;18338;53.240;8.798;2024-03-23T14:25:27;13.90;99.90
31765;DHT22;18338;53.240;8.798;2024-03-23T14:27:55;14.20;99.90
31765;DHT22;18338;53.240;8.798;2024-03-23T14:30:20;13.10;99.90
31765;DHT22;18338;53.240;8.798;2024-03-23T14:32:46;11.20;99.90
31765;DHT22;18338;53.240;8.798;2024-03-23T14:35:12;10.60;99.90
31765;DHT22;18338;53.240;8.798;2024-03-23T14:37:37;9.90;99.90
31765;DHT22;18338;53.240;8.798;2024-03-23T14:40:04;9.70;99.90
31765;DHT22;18338;53.240;8.798;2024-03-23T14:42:30;9.50;99.90
31765;DHT22;18338;53.240;8.798;2024-03-23T14:44:58;9.40;99.90
31765;DHT22;18338;53.240;8.798;2024-03-23T14:47:23;9.30;99.90
31765;DHT22;18338;53.240;8.798;2024-03-23T14:49:49;9.10;99.90
31765;DHT22;18338;53.240;8.798;2024-03-23T14:52:17;8.60;99.90
31765;DHT22;18338;53.240;8.798;2024-03-23T14:54:44;8.00;99.90
31765;DHT22;18338;53.240;8.798;2024-03-23T14:57:10;7.20;99.90
31765;DHT22;18338;53.240;8.798;2024-03-23T14:59:36;7.30;99.90
31765;DHT22;18338;53.240;8.798;2024-03-23T15:02:07;7.90;99.90
31765;DHT22;18338;53.240;8.798;2024-03-23T15:04:33;10.10;99.90
31765;DHT22;18338;53.240;8.798;2024-03-23T15:06:59;11.30;99.90
31765;DHT22;18338;53.240;8.798;2024-03-23T15:09:24;11.50;99.90
31765;DHT22;18338;53.240;8.798;2024-03-23T15:11:50;12.20;99.90
31765;DHT22;18338;53.240;8.798;2024-03-23T15:14:16;12.30;99.90
31765;DHT22;18338;53.240;8.798;2024-03-23T15:16:42;13.50;99.90
31765;DHT22;18338;53.240;8.798;2024-03-23T15:19:08;14.10;99.90
31765;DHT22;18338;53.240;8.798;2024-03-23T15:21:34;14.70;99.90
31765;DHT22;18338;53.240;8.798;2024-03-23T15:24:00;14.80;99.90
31765;DHT22;18338;53.240;8.798;2024-03-23T15:26:25;14.40;99.90
31765;DHT22;18338;53.240;8.798;2024-03-23T15:28:52;13.50;99.90
31765;DHT22;18338;53.240;8.798;2024-03-23T15:31:24;13.50;99.90
31765;DHT22;18338;53.240;8.798;2024-03-23T15:33:59;12.50;99.90
31765;DHT22;18338;53.240;8.798;2024-03-23T15:36:31;11.20;99.90
31765;DHT22;18338;53.240;8.798;2024-03-23T15:39:32;10.90;99.90
31765;DHT22;18338;53.240;8.798;2024-03-23T15:41:58;12.00;99.90
31765;DHT22;18338;53.240;8.798;2024-03-23T15:44:23;12.80;99.90
31765;DHT22;18338;53.240;8.798;2024-03-23T15:46:49;13.20;99.90
31765;DHT22;18338;53.240;8.798;2024-03-23T15:49:15;13.30;99.90
31765;DHT22;18338;53.240;8.798;2024-03-23T15:51:41;12.70;99.90
31765;DHT22;18338;53.240;8.798;2024-03-23T15:54:09;12.30;99.90
31765;DHT22;18338;53.240;8.798;2024-03-23T15:56:35;11.50;99.90
31765;DHT22;18338;53.240;8.798;2024-03-23T15:59:01;10.60;99.90
31765;DHT22;18338;53.240;8.798;2024-03-23T16:01:33;9.90;99.90
31765;DHT22;18338;53.240;8.798;2024-03-23T16:04:01;9.40;99.90
31765;DHT22;18338;53.240;8.798;2024-03-23T16:06:27;9.20;99.90
31765;DHT22;18338;53.240;8.798;2024-03-23T16:08:53;8.80;99.90
31765;DHT22;18338;53.240;8.798;2024-03-23T16:11:18;8.40;99.90
31765;DHT22;18338;53.240;8.798;2024-03-23T16:13:45;8.20;99.90
31765;DHT22;18338;53.240;8.798;2024-03-23T16:16:12;7.90;99.90
31765;DHT22;18338;53.240;8.798;2024-03-23T16:18:38;7.60;99.90
31765;DHT22;18338;53.240;8.798;2024-03-23T16:21:07;7.30;99.90
31765;DHT22;18338;53.240;8.798;2024-03-23T16:23:34;7.10;99.90
31765;DHT22;18338;53.240;8.798;2024-03-23T16:26:00;6.90;99.90
31765;DHT22;18338;53.240;8.798;2024-03-23T16:28:31;6.80;99.90
31765;DHT22;18338;53.240;8.798;2024-03-23T16:33:28;6.70;99.90
31765;DHT22;18338;53.240;8.798;2024-03-23T16:36:06;6.90;99.90
31765;DHT22;18338;53.240;8.798;2024-03-23T16:38:36;7.60;99.90
31765;DHT22;18338;53.240;8.798;2024-03-23T16:41:04;8.30;99.90
31765;DHT22;18338;53.240;8.798;2024-03-23T16:43:35;8.60;99.90
31765;DHT22;18338;53.240;8.798;2024-03-23T16:46:06;8.50;99.90
31765;DHT22;18338;53.240;8.798;2024-03-23T16:48:33;8.40;99.90
31765;DHT22;18338;53.240;8.798;2024-03-23T16:51:00;8.00;99.90
31765;DHT22;18338;53.240;8.798;2024-03-23T16:53:26;7.70;99.90